createdAt,value
2022-10-03T00:00:15.540Z,16.83
2022-10-03T00:03:23.569Z,18.58
2022-10-03T00:06:10.655Z,18.60
2022-10-03T00:09:21.587Z,19.70
2022-10-03T00:12:14.749Z,18.67
2022-10-03T00:15:32.574Z,18.13
2022-10-03T00:18:23.624Z,18.17
2022-10-03T00:21:22.599Z,18.90
2022-10-03T00:24:34.623Z,19.10
2022-10-03T00:27:58.608Z,19.17
2022-10-03T00:31:31.621Z,17.63
2022-10-03T00:34:23.603Z,17.27
2022-10-03T00:37:16.650Z,17.42
2022-10-03T00:40:39.600Z,18.55
2022-10-03T00:43:43.740Z,18.05
2022-10-03T00:46:42.654Z,18.88
2022-10-03T00:49:32.660Z,17.20
2022-10-03T00:52:36.597Z,16.83
2022-10-03T00:55:51.671Z,18.13
2022-10-03T00:59:08.596Z,18.42
2022-10-03T01:01:57.704Z,16.58
2022-10-03T01:04:57.613Z,18.05
2022-10-03T01:08:08.613Z,18.20
2022-10-03T01:10:49.657Z,17.88
2022-10-03T01:13:41.605Z,17.80
2022-10-03T01:16:29.682Z,15.98
2022-10-03T01:19:28.622Z,17.77
2022-10-03T01:22:11.714Z,16.02
2022-10-03T01:25:13.672Z,17.58
2022-10-03T01:28:37.890Z,15.88
2022-10-03T01:31:29.669Z,17.80
2022-10-03T01:34:40.375Z,16.83
2022-10-03T01:37:47.592Z,16.67
2022-10-03T01:41:05.645Z,16.40
2022-10-03T01:44:37.640Z,17.20
2022-10-03T01:47:57.640Z,16.27
2022-10-03T01:50:57.583Z,15.93
2022-10-03T01:54:28.610Z,17.85
2022-10-03T01:57:15.679Z,18.95
2022-10-03T02:00:14.607Z,18.33
2022-10-03T02:03:14.603Z,18.02
2022-10-03T02:06:07.622Z,16.05
2022-10-03T02:08:58.766Z,15.82
2022-10-03T02:12:30.617Z,15.57
2022-10-03T02:15:28.999Z,17.83
2022-10-03T02:18:28.619Z,17.42
2022-10-03T02:21:27.623Z,17.65
2022-10-03T02:24:14.635Z,16.38
2022-10-03T02:26:59.697Z,15.95
2022-10-03T02:29:52.623Z,15.57
2022-10-03T02:32:50.637Z,16.00
2022-10-03T02:35:52.635Z,17.73
2022-10-03T02:38:40.704Z,15.88
2022-10-03T02:41:42.911Z,17.33
2022-10-03T02:44:28.133Z,16.90
2022-10-03T02:47:17.624Z,16.60
2022-10-03T02:50:40.643Z,18.20
2022-10-03T02:53:39.628Z,15.98
2022-10-03T02:56:32.654Z,15.38
2022-10-03T02:59:23.709Z,17.98
2022-10-03T03:02:51.680Z,17.25
2022-10-03T03:05:43.715Z,15.88
2022-10-03T03:09:21.655Z,15.88
2022-10-03T03:12:29.651Z,14.02
2022-10-03T03:15:38.657Z,15.50
2022-10-03T03:19:24.651Z,15.43
2022-10-03T03:22:43.675Z,15.25
2022-10-03T03:25:38.741Z,17.25
2022-10-03T03:28:40.659Z,16.83
2022-10-03T03:31:48.701Z,14.80
2022-10-03T03:34:55.642Z,14.65
2022-10-03T03:37:55.657Z,17.25
2022-10-03T03:40:54.449Z,15.40
2022-10-03T03:43:54.666Z,15.60
2022-10-03T03:46:32.798Z,17.27
2022-10-03T03:49:37.686Z,15.73
2022-10-03T03:52:32.737Z,14.77
2022-10-03T03:55:43.691Z,16.35
2022-10-03T03:58:51.672Z,14.55
2022-10-03T04:02:05.710Z,15.13
2022-10-03T04:04:58.728Z,15.55
2022-10-03T04:08:18.665Z,15.15
2022-10-03T04:11:29.695Z,16.05
2022-10-03T04:14:25.678Z,14.18
2022-10-03T04:17:32.279Z,15.13
2022-10-03T04:20:51.695Z,14.50
2022-10-03T04:23:34.673Z,14.55
2022-10-03T04:26:58.697Z,12.32
2022-10-03T04:29:50.506Z,13.70
2022-10-03T04:32:54.676Z,18.65
2022-10-03T04:35:46.686Z,16.48
2022-10-03T04:39:02.692Z,11.45
2022-10-03T04:42:07.696Z,13.30
2022-10-03T04:45:53.778Z,13.48
2022-10-03T04:48:57.691Z,12.45
2022-10-03T04:52:02.668Z,10.50
2022-10-03T04:55:12.696Z,13.02
2022-10-03T04:58:13.688Z,14.02
2022-10-03T05:01:21.757Z,14.07
2022-10-03T05:04:10.577Z,10.45
2022-10-03T05:07:14.708Z,10.38
2022-10-03T05:09:49.560Z,11.15
2022-10-03T05:13:08.700Z,12.27
2022-10-03T05:15:49.943Z,14.20
2022-10-03T05:18:58.706Z,14.07
2022-10-03T05:22:18.731Z,12.40
2022-10-03T05:25:32.717Z,12.23
2022-10-03T05:28:45.711Z,12.55
2022-10-03T05:31:53.781Z,12.48
2022-10-03T05:34:45.797Z,13.10
2022-10-03T05:37:53.721Z,10.50
2022-10-03T05:40:34.266Z,13.90
2022-10-03T05:43:42.722Z,12.18
2022-10-03T05:46:15.869Z,13.57
2022-10-03T05:49:24.716Z,12.75
2022-10-03T05:52:23.803Z,12.25
2022-10-03T05:55:47.720Z,12.93
2022-10-03T05:58:33.725Z,13.98
2022-10-03T06:01:55.781Z,10.35
2022-10-03T06:05:17.734Z,10.27
2022-10-03T06:08:20.790Z,13.38
2022-10-03T06:11:28.758Z,11.30
2022-10-03T06:14:18.794Z,12.60
2022-10-03T06:17:43.720Z,13.40
2022-10-03T06:20:38.827Z,11.18
2022-10-03T06:24:04.740Z,11.20
2022-10-03T06:27:05.828Z,10.60
2022-10-03T06:30:17.745Z,10.65
2022-10-03T06:33:28.815Z,13.82
2022-10-03T06:36:41.742Z,11.70
2022-10-03T06:39:51.899Z,10.30
2022-10-03T06:43:19.799Z,11.52
2022-10-03T06:46:26.865Z,13.70
2022-10-03T06:49:39.731Z,12.70
2022-10-03T06:52:34.814Z,12.20
2022-10-03T06:55:46.760Z,11.07
2022-10-03T06:59:04.757Z,11.93
2022-10-03T07:02:18.840Z,13.10
2022-10-03T07:05:50.758Z,11.68
2022-10-03T07:08:51.736Z,11.52
2022-10-03T07:12:21.767Z,16.33
2022-10-03T07:15:33.674Z,26.08
2022-10-03T07:18:44.766Z,27.30
2022-10-03T07:21:54.814Z,26.73
2022-10-03T07:25:18.757Z,25.90
2022-10-03T07:28:02.920Z,27.88
2022-10-03T07:31:11.831Z,29.40
2022-10-03T07:34:15.829Z,28.13
2022-10-03T07:37:58.789Z,27.55
2022-10-03T07:41:12.763Z,28.92
2022-10-03T07:44:28.782Z,25.95
2022-10-03T07:47:42.767Z,28.25
2022-10-03T07:50:47.795Z,26.80
2022-10-03T07:53:44.858Z,22.23
2022-10-03T07:56:56.768Z,23.95
2022-10-03T07:59:41.879Z,22.35
2022-10-03T08:02:43.897Z,20.23
2022-10-03T08:05:45.879Z,23.60
2022-10-03T08:08:51.777Z,22.85
2022-10-03T08:12:16.780Z,21.20
2022-10-03T08:15:10.902Z,21.40
2022-10-03T08:18:42.786Z,20.60
2022-10-03T08:21:33.778Z,19.42
2022-10-03T08:25:03.270Z,19.83
2022-10-03T08:27:58.834Z,19.50
2022-10-03T08:31:13.834Z,19.48
2022-10-03T08:34:25.765Z,19.38
2022-10-03T08:37:35.788Z,16.88
2022-10-03T08:40:21.796Z,15.00
2022-10-03T08:43:57.793Z,14.35
2022-10-03T08:47:18.796Z,16.85
2022-10-03T08:50:19.065Z,14.27
2022-10-03T08:53:23.800Z,12.23
2022-10-03T08:56:23.862Z,12.75
2022-10-03T08:59:50.788Z,13.30
2022-10-03T09:03:28.649Z,15.65
2022-10-03T09:06:26.804Z,13.70
2022-10-03T09:10:07.793Z,13.68
2022-10-03T09:13:30.789Z,12.48
2022-10-03T09:16:37.076Z,13.60
2022-10-03T09:19:25.911Z,13.93
2022-10-03T09:22:37.796Z,13.27
2022-10-03T09:25:36.822Z,13.45
2022-10-03T09:28:39.889Z,12.18
2022-10-03T09:31:48.932Z,12.25
2022-10-03T09:34:42.115Z,13.20
2022-10-03T09:37:35.795Z,11.95
2022-10-03T09:40:26.884Z,12.95
2022-10-03T09:43:48.818Z,13.65
2022-10-03T09:46:44.140Z,12.60
2022-10-03T09:49:47.811Z,12.48
2022-10-03T09:52:51.832Z,14.82
2022-10-03T09:56:13.833Z,14.48
2022-10-03T09:59:20.834Z,14.15
2022-10-03T10:02:29.833Z,13.80
2022-10-03T10:05:37.805Z,15.27
2022-10-03T10:09:33.829Z,14.43
2022-10-03T10:12:57.852Z,13.43
2022-10-03T10:15:42.950Z,15.40
2022-10-03T10:19:06.862Z,14.18
2022-10-03T10:21:43.072Z,15.90
2022-10-03T10:25:08.832Z,14.60
2022-10-03T10:27:48.913Z,14.10
2022-10-03T10:31:03.873Z,13.10
2022-10-03T10:34:08.826Z,14.85
2022-10-03T10:37:14.829Z,16.42
2022-10-03T10:40:12.849Z,12.48
2022-10-03T10:43:33.825Z,16.67
2022-10-03T10:46:51.922Z,16.88
2022-10-03T10:49:49.900Z,13.07
2022-10-03T10:52:55.863Z,14.20
2022-10-03T10:56:10.833Z,15.27
2022-10-03T10:59:25.865Z,11.85
2022-10-03T11:02:33.860Z,13.20
2022-10-03T11:05:42.188Z,15.07
2022-10-03T11:08:57.868Z,12.02
2022-10-03T11:11:53.596Z,14.23
2022-10-03T11:15:08.879Z,15.77
2022-10-03T11:18:08.427Z,15.65
2022-10-03T11:20:54.859Z,12.77
2022-10-03T11:23:49.864Z,12.65
2022-10-03T11:27:20.848Z,15.43
2022-10-03T11:30:44.890Z,14.95
2022-10-03T11:33:39.975Z,13.40
2022-10-03T11:36:49.876Z,12.65
2022-10-03T11:39:25.950Z,15.48
2022-10-03T11:42:33.864Z,17.55
2022-10-03T11:45:19.886Z,14.93
2022-10-03T11:48:13.880Z,15.80
2022-10-03T11:51:14.873Z,12.48
2022-10-03T11:54:13.273Z,13.00
2022-10-03T11:57:25.912Z,15.73
2022-10-03T12:00:11.934Z,14.40
2022-10-03T12:03:10.994Z,14.13
2022-10-03T12:06:29.869Z,12.30
2022-10-03T12:09:22.889Z,13.10
2022-10-03T12:12:09.968Z,13.23
2022-10-03T12:14:58.889Z,14.80
2022-10-03T12:17:46.974Z,15.30
2022-10-03T12:21:04.898Z,12.70
2022-10-03T12:23:38.529Z,11.75
2022-10-03T12:26:49.891Z,11.95
2022-10-03T12:29:26.027Z,14.73
2022-10-03T12:32:38.902Z,15.85
2022-10-03T12:36:03.141Z,13.60
2022-10-03T12:39:15.875Z,13.55
2022-10-03T12:42:00.997Z,15.75
2022-10-03T12:44:50.883Z,13.07
2022-10-03T12:47:55.342Z,14.95
2022-10-03T12:50:44.888Z,14.18
2022-10-03T12:53:24.900Z,12.95
2022-10-03T12:56:11.149Z,12.95
2022-10-03T12:59:20.897Z,14.93
2022-10-03T13:02:19.977Z,14.63
2022-10-03T13:05:37.901Z,15.38
2022-10-03T13:08:45.931Z,15.80
2022-10-03T13:11:46.989Z,15.45
2022-10-03T13:14:48.062Z,15.30
2022-10-03T13:17:36.286Z,15.98
2022-10-03T13:20:38.944Z,14.52
2022-10-03T13:23:24.431Z,15.32
2022-10-03T13:26:57.895Z,15.95
2022-10-03T13:29:37.935Z,15.60
2022-10-03T13:32:51.909Z,15.15
2022-10-03T13:36:06.918Z,16.15
2022-10-03T13:38:58.940Z,17.10
2022-10-03T13:42:25.926Z,15.52
2022-10-03T13:45:21.913Z,15.90
2022-10-03T13:48:02.091Z,16.00
2022-10-03T13:51:07.926Z,14.50
2022-10-03T13:54:10.952Z,16.38
2022-10-03T13:57:31.916Z,17.70
2022-10-03T14:00:29.943Z,18.30
2022-10-03T14:03:41.922Z,15.48
2022-10-03T14:06:38.149Z,16.48
2022-10-03T14:09:33.041Z,17.55
2022-10-03T14:12:51.182Z,18.67
2022-10-03T14:16:06.974Z,14.45
2022-10-03T14:19:24.923Z,16.25
2022-10-03T14:22:07.046Z,16.67
2022-10-03T14:25:25.922Z,15.30
2022-10-03T14:28:02.254Z,16.33
2022-10-03T14:31:12.972Z,15.02
2022-10-03T14:34:43.036Z,15.02
2022-10-03T14:37:51.952Z,15.50
2022-10-03T14:40:32.874Z,17.42
2022-10-03T14:43:47.948Z,16.98
2022-10-03T14:46:28.118Z,13.60
2022-10-03T14:49:53.566Z,16.17
2022-10-03T14:53:08.974Z,15.77
2022-10-03T14:56:05.962Z,16.98
2022-10-03T14:59:03.979Z,16.55
2022-10-03T15:02:03.036Z,16.08
2022-10-03T15:04:56.966Z,15.20
2022-10-03T15:07:56.978Z,15.32
2022-10-03T15:10:50.977Z,16.50
2022-10-03T15:13:49.971Z,15.77
2022-10-03T15:16:48.953Z,13.85
2022-10-03T15:19:45.971Z,13.95
2022-10-03T15:22:46.944Z,14.80
2022-10-03T15:25:39.997Z,16.83
2022-10-03T15:28:28.040Z,16.60
2022-10-03T15:31:21.059Z,14.70
2022-10-03T15:33:59.210Z,14.55
2022-10-03T15:36:48.960Z,14.82
2022-10-03T15:39:30.066Z,16.10
2022-10-03T15:42:16.988Z,16.60
2022-10-03T15:45:09.054Z,16.52
2022-10-03T15:47:56.979Z,15.23
2022-10-03T15:50:45.971Z,15.68
2022-10-03T15:53:42.977Z,13.90
2022-10-03T15:56:41.975Z,14.27
2022-10-03T15:59:34.988Z,15.30
2022-10-03T16:02:24.084Z,14.70
2022-10-03T16:05:16.001Z,14.85
2022-10-03T16:08:01.608Z,14.05
2022-10-03T16:11:04.997Z,14.27
2022-10-03T16:14:03.052Z,16.17
2022-10-03T16:16:57.035Z,14.73
2022-10-03T16:19:47.060Z,14.73
2022-10-03T16:22:57.991Z,14.23
2022-10-03T16:25:54.013Z,14.82
2022-10-03T16:28:48.967Z,17.58
2022-10-03T16:31:38.412Z,16.38
2022-10-03T16:34:37.019Z,15.80
2022-10-03T16:37:38.997Z,14.63
2022-10-03T16:40:28.998Z,17.00
2022-10-03T16:43:12.499Z,17.23
2022-10-03T16:46:01.020Z,16.83
2022-10-03T16:48:55.702Z,16.15
2022-10-03T16:51:52.011Z,16.92
2022-10-03T16:54:34.995Z,17.20
2022-10-03T16:57:28.028Z,17.33
2022-10-03T17:00:07.783Z,15.27
2022-10-03T17:03:22.043Z,17.79
2022-10-03T17:06:06.010Z,19.00
2022-10-03T17:09:05.040Z,15.52
2022-10-03T17:11:59.018Z,15.77
2022-10-03T17:14:44.010Z,17.25
2022-10-03T17:17:46.022Z,16.75
2022-10-03T17:21:03.019Z,17.30
2022-10-03T17:24:21.022Z,19.83
2022-10-03T17:27:06.027Z,15.77
2022-10-03T17:30:12.031Z,18.63
2022-10-03T17:32:51.643Z,19.73
2022-10-03T17:36:06.024Z,17.50
2022-10-03T17:39:26.019Z,18.55
2022-10-03T17:42:26.059Z,17.92
2022-10-03T17:45:40.111Z,18.52
2022-10-03T17:48:38.081Z,17.13
2022-10-03T17:51:35.040Z,19.10
2022-10-03T17:54:27.034Z,16.33
2022-10-03T17:57:21.151Z,16.70
2022-10-03T18:00:36.068Z,18.65
2022-10-03T18:03:45.041Z,17.48
2022-10-03T18:06:41.037Z,16.42
2022-10-03T18:09:22.795Z,17.40
2022-10-03T18:12:24.074Z,18.08
2022-10-03T18:15:14.060Z,15.82
2022-10-03T18:18:34.056Z,18.65
2022-10-03T18:21:41.403Z,18.20
2022-10-03T18:24:29.122Z,17.77
2022-10-03T18:27:48.082Z,18.92
2022-10-03T18:30:45.584Z,17.67
2022-10-03T18:33:58.061Z,18.58
2022-10-03T18:36:38.137Z,17.95
2022-10-03T18:39:33.033Z,18.95
2022-10-03T18:42:08.136Z,15.98
2022-10-03T18:44:55.050Z,17.90
2022-10-03T18:47:40.092Z,18.08
2022-10-03T18:50:47.069Z,17.02
2022-10-03T18:53:28.160Z,16.58
2022-10-03T18:56:19.076Z,16.73
2022-10-03T18:59:10.220Z,18.52
2022-10-03T19:02:02.176Z,17.45
2022-10-03T19:04:57.053Z,19.08
2022-10-03T19:08:29.075Z,18.05
2022-10-03T19:11:08.141Z,19.20
2022-10-03T19:14:03.090Z,18.80
2022-10-03T19:16:49.901Z,19.80
2022-10-03T19:19:58.604Z,18.20
2022-10-03T19:23:02.248Z,18.15
2022-10-03T19:25:55.075Z,18.70
2022-10-03T19:28:35.181Z,17.85
2022-10-03T19:31:31.183Z,18.38
2022-10-03T19:34:24.109Z,18.33
2022-10-03T19:37:50.099Z,16.92
2022-10-03T19:40:52.079Z,16.73
2022-10-03T19:43:28.172Z,16.65
2022-10-03T19:46:35.144Z,18.35
2022-10-03T19:49:38.085Z,18.27
2022-10-03T19:52:42.104Z,18.55
2022-10-03T19:55:41.078Z,18.95
2022-10-03T19:58:14.158Z,19.55
2022-10-03T20:01:04.144Z,18.88
2022-10-03T20:03:52.210Z,17.83
2022-10-03T20:06:57.091Z,16.95
2022-10-03T20:09:36.493Z,17.73
2022-10-03T20:12:24.128Z,17.92
2022-10-03T20:15:04.085Z,16.77
2022-10-03T20:17:59.107Z,16.95
2022-10-03T20:20:47.112Z,15.02
2022-10-03T20:23:30.085Z,16.73
2022-10-03T20:26:36.175Z,17.20
2022-10-03T20:29:35.112Z,18.08
2022-10-03T20:32:09.221Z,15.75
2022-10-03T20:35:05.152Z,17.13
2022-10-03T20:37:41.193Z,18.15
2022-10-03T20:40:41.109Z,16.17
2022-10-03T20:43:48.117Z,17.90
2022-10-03T20:46:49.126Z,17.85
2022-10-03T20:49:50.088Z,18.27
2022-10-03T20:52:44.132Z,19.00
2022-10-03T20:55:36.103Z,18.02
2022-10-03T20:58:38.186Z,19.85
2022-10-03T21:01:29.191Z,19.63
2022-10-03T21:04:26.193Z,20.38
2022-10-03T21:07:33.112Z,18.40
2022-10-03T21:10:16.209Z,20.42
2022-10-03T21:13:11.175Z,19.65
2022-10-03T21:16:06.155Z,20.45
2022-10-03T21:19:03.141Z,19.90
2022-10-03T21:22:14.117Z,18.30
2022-10-03T21:25:13.117Z,19.70
2022-10-03T21:28:02.132Z,20.35
2022-10-03T21:30:58.216Z,21.05
2022-10-03T21:33:54.129Z,20.08
2022-10-03T21:36:47.133Z,18.92
2022-10-03T21:39:46.161Z,19.92
2022-10-03T21:42:31.251Z,18.83
2022-10-03T21:45:31.166Z,19.80
2022-10-03T21:48:14.240Z,18.70
2022-10-03T21:51:07.129Z,20.05
2022-10-03T21:53:53.190Z,18.95
2022-10-03T21:57:08.158Z,18.98
2022-10-03T22:00:12.366Z,19.20
2022-10-03T22:03:34.138Z,18.92
2022-10-03T22:06:17.243Z,20.15
2022-10-03T22:09:10.175Z,20.75
2022-10-03T22:11:55.283Z,20.02
2022-10-03T22:15:02.183Z,19.90
2022-10-03T22:17:52.227Z,19.02
2022-10-03T22:20:41.133Z,17.05
2022-10-03T22:23:27.151Z,18.73
2022-10-03T22:26:41.157Z,18.88
2022-10-03T22:29:39.180Z,18.45
2022-10-03T22:32:40.148Z,17.70
2022-10-03T22:35:43.175Z,17.50
2022-10-03T22:38:40.145Z,17.67
2022-10-03T22:41:34.184Z,18.52
2022-10-03T22:44:12.256Z,19.58
2022-10-03T22:47:02.199Z,19.35
2022-10-03T22:49:59.090Z,19.77
2022-10-03T22:52:50.151Z,18.17
2022-10-03T22:55:34.147Z,18.83
2022-10-03T22:58:28.177Z,18.88
2022-10-03T23:01:22.165Z,19.13
2022-10-03T23:04:15.218Z,19.83
2022-10-03T23:07:18.196Z,19.50
2022-10-03T23:10:42.172Z,17.92
2022-10-03T23:13:37.180Z,18.30
2022-10-03T23:17:02.193Z,17.00
2022-10-03T23:20:23.180Z,18.80
2022-10-03T23:23:21.190Z,19.58
2022-10-03T23:26:23.236Z,19.52
2022-10-03T23:29:14.231Z,18.95
2022-10-03T23:32:08.243Z,18.00
2022-10-03T23:35:06.185Z,18.02
2022-10-03T23:37:55.169Z,19.17
2022-10-03T23:40:45.198Z,20.05
2022-10-03T23:43:42.258Z,18.70
2022-10-03T23:46:32.245Z,19.63
2022-10-03T23:49:15.174Z,18.55
2022-10-03T23:52:10.174Z,18.50
2022-10-03T23:55:03.212Z,18.30
2022-10-03T23:57:48.251Z,18.35
